createdAt,value
2018-12-12T00:01:13.442Z,3.17
2018-12-12T00:03:41.711Z,3.26
2018-12-12T00:06:09.980Z,3.20
2018-12-12T00:08:38.242Z,3.25
2018-12-12T00:11:06.492Z,3.23
2018-12-12T00:13:34.762Z,3.13
2018-12-12T00:16:03.011Z,3.08
2018-12-12T00:18:31.277Z,2.90
2018-12-12T00:20:59.537Z,2.93
2018-12-12T00:23:28.513Z,2.91
2018-12-12T00:25:56.782Z,2.90
2018-12-12T00:28:25.028Z,2.87
2018-12-12T00:30:53.300Z,2.98
2018-12-12T00:33:21.552Z,2.98
2018-12-12T00:35:49.798Z,3.07
2018-12-12T00:38:18.062Z,3.14
2018-12-12T00:40:46.300Z,3.27
2018-12-12T00:43:14.555Z,3.31
2018-12-12T00:45:42.821Z,3.24
2018-12-12T00:48:11.069Z,3.19
2018-12-12T00:50:39.350Z,3.22
2018-12-12T00:53:07.625Z,3.27
2018-12-12T00:55:35.891Z,3.30
2018-12-12T00:58:04.281Z,3.36
2018-12-12T01:00:32.524Z,3.28
2018-12-12T01:03:00.773Z,3.34
2018-12-12T01:05:29.040Z,3.35
2018-12-12T01:07:57.295Z,3.26
2018-12-12T01:10:25.609Z,3.31
2018-12-12T01:12:53.868Z,3.21
2018-12-12T01:15:22.117Z,3.28
2018-12-12T01:17:50.405Z,3.28
2018-12-12T01:20:18.685Z,3.22
2018-12-12T01:22:46.948Z,3.23
2018-12-12T01:25:15.201Z,3.19
2018-12-12T01:27:43.476Z,3.03
2018-12-12T01:30:11.800Z,2.94
2018-12-12T01:32:40.148Z,2.90
2018-12-12T01:35:08.409Z,2.92
2018-12-12T01:37:36.684Z,2.94
2018-12-12T01:40:06.139Z,2.90
2018-12-12T01:42:34.405Z,2.88
2018-12-12T01:45:02.653Z,2.82
2018-12-12T01:47:30.898Z,2.81
2018-12-12T01:49:59.149Z,2.86
2018-12-12T01:52:27.396Z,2.84
2018-12-12T01:54:55.676Z,2.81
2018-12-12T01:57:23.933Z,2.84
2018-12-12T01:59:52.294Z,2.81
2018-12-12T02:02:20.620Z,2.78
2018-12-12T02:04:48.931Z,2.64
2018-12-12T02:07:17.296Z,2.49
2018-12-12T02:09:45.542Z,2.54
2018-12-12T02:12:13.782Z,2.44
2018-12-12T02:14:42.134Z,2.46
2018-12-12T02:17:10.387Z,2.45
2018-12-12T02:19:38.705Z,2.48
2018-12-12T02:22:07.098Z,2.40
2018-12-12T02:24:35.469Z,2.38
2018-12-12T02:27:03.764Z,2.38
2018-12-12T02:29:32.024Z,2.41
2018-12-12T02:32:00.280Z,2.39
2018-12-12T02:34:28.623Z,2.33
2018-12-12T02:36:56.872Z,2.30
2018-12-12T02:39:25.174Z,2.40
2018-12-12T02:41:53.462Z,2.31
2018-12-12T02:44:21.692Z,2.38
2018-12-12T02:46:49.948Z,2.45
2018-12-12T02:49:18.307Z,2.40
2018-12-12T02:51:46.538Z,2.21
2018-12-12T02:54:14.805Z,2.07
2018-12-12T02:56:43.040Z,2.04
2018-12-12T02:59:11.415Z,1.99
2018-12-12T03:01:39.678Z,1.92
2018-12-12T03:04:07.939Z,1.91
2018-12-12T03:06:36.244Z,1.92
2018-12-12T03:09:06.543Z,1.87
2018-12-12T03:11:34.846Z,1.88
2018-12-12T03:14:03.089Z,1.88
2018-12-12T03:16:31.352Z,1.84
2018-12-12T03:19:00.295Z,1.87
2018-12-12T03:21:28.510Z,1.97
2018-12-12T03:23:56.779Z,2.06
2018-12-12T03:26:25.030Z,2.22
2018-12-12T03:28:53.301Z,2.36
2018-12-12T03:31:21.676Z,2.46
2018-12-12T03:33:49.964Z,2.48
2018-12-12T03:36:18.268Z,2.54
2018-12-12T03:38:46.627Z,2.56
2018-12-12T03:41:14.882Z,2.63
2018-12-12T03:43:43.149Z,2.65
2018-12-12T03:46:11.383Z,2.60
2018-12-12T03:48:39.634Z,2.51
2018-12-12T03:51:07.904Z,2.41
2018-12-12T03:53:36.176Z,2.39
2018-12-12T03:56:04.447Z,2.59
2018-12-12T03:58:32.717Z,2.65
2018-12-12T04:01:00.968Z,2.74
2018-12-12T04:03:29.516Z,2.78
2018-12-12T04:05:57.771Z,2.83
2018-12-12T04:08:26.032Z,2.82
2018-12-12T04:10:54.341Z,2.59
2018-12-12T04:13:22.606Z,2.45
2018-12-12T04:15:50.851Z,2.55
2018-12-12T04:18:19.117Z,2.64
2018-12-12T04:20:47.360Z,2.71
2018-12-12T04:23:15.614Z,2.70
2018-12-12T04:25:43.848Z,2.60
2018-12-12T04:28:12.106Z,2.42
2018-12-12T04:30:40.369Z,2.49
2018-12-12T04:33:08.604Z,2.52
2018-12-12T04:35:36.852Z,2.54
2018-12-12T04:38:05.127Z,2.52
2018-12-12T04:40:33.408Z,2.41
2018-12-12T04:43:01.680Z,2.46
2018-12-12T04:45:29.932Z,2.52
2018-12-12T04:47:58.208Z,2.48
2018-12-12T04:50:26.476Z,2.44
2018-12-12T04:52:54.819Z,2.47
2018-12-12T04:55:23.077Z,2.45
2018-12-12T04:57:51.320Z,2.40
2018-12-12T05:00:19.564Z,2.40
2018-12-12T05:05:31.060Z,2.49
2018-12-12T05:07:59.348Z,2.43
2018-12-12T05:10:27.603Z,2.41
2018-12-12T05:12:55.868Z,2.43
2018-12-12T05:15:24.132Z,2.26
2018-12-12T05:17:52.856Z,2.21
2018-12-12T05:20:21.125Z,2.22
2018-12-12T05:22:49.400Z,2.22
2018-12-12T05:25:17.652Z,2.16
2018-12-12T05:27:45.920Z,2.23
2018-12-12T05:30:14.179Z,2.23
2018-12-12T05:32:42.454Z,2.12
2018-12-12T05:35:10.708Z,2.02
2018-12-12T05:40:22.300Z,1.85
2018-12-12T05:42:50.559Z,1.80
2018-12-12T05:45:19.672Z,1.76
2018-12-12T05:47:47.940Z,1.73
2018-12-12T05:50:16.210Z,1.67
2018-12-12T05:52:44.485Z,1.67
2018-12-12T05:55:12.735Z,1.66
2018-12-12T05:57:40.991Z,1.74
2018-12-12T06:00:10.385Z,1.76
2018-12-12T06:02:38.650Z,1.80
2018-12-12T06:05:07.087Z,1.86
2018-12-12T06:07:35.365Z,1.90
2018-12-12T06:10:05.484Z,1.99
2018-12-12T06:12:33.750Z,2.05
2018-12-12T06:15:02.022Z,2.12
2018-12-12T06:17:30.280Z,2.22
2018-12-12T06:19:58.914Z,2.36
2018-12-12T06:22:27.933Z,2.40
2018-12-12T06:24:56.204Z,2.41
2018-12-12T06:27:24.460Z,2.47
2018-12-12T06:29:52.712Z,2.55
2018-12-12T06:32:20.981Z,2.55
2018-12-12T06:34:49.246Z,2.60
2018-12-12T06:37:17.519Z,2.56
2018-12-12T06:39:45.812Z,2.56
2018-12-12T06:42:14.101Z,2.51
2018-12-12T06:44:42.383Z,2.38
2018-12-12T06:47:10.753Z,2.29
2018-12-12T06:49:39.021Z,2.26
2018-12-12T06:52:07.324Z,2.11
2018-12-12T06:54:35.616Z,2.13
2018-12-12T06:57:03.906Z,2.00
2018-12-12T06:59:32.243Z,1.92
2018-12-12T07:02:00.696Z,1.94
2018-12-12T07:04:29.141Z,1.91
2018-12-12T07:06:58.185Z,1.93
2018-12-12T07:09:26.479Z,1.90
2018-12-12T07:11:54.752Z,1.79
2018-12-12T07:14:23.051Z,1.80
2018-12-12T07:16:51.339Z,1.74
2018-12-12T07:19:19.613Z,1.68
2018-12-12T07:21:47.910Z,1.26
2018-12-12T07:24:16.204Z,1.19
2018-12-12T07:26:44.499Z,1.20
2018-12-12T07:29:12.794Z,1.13
2018-12-12T07:31:41.085Z,0.95
2018-12-12T07:34:09.374Z,0.77
2018-12-12T07:36:37.673Z,0.82
2018-12-12T07:39:08.242Z,0.89
2018-12-12T07:41:36.651Z,0.95
2018-12-12T07:44:04.958Z,0.88
2018-12-12T07:46:33.612Z,0.99
2018-12-12T07:49:02.481Z,1.07
2018-12-12T07:51:30.778Z,1.15
2018-12-12T07:53:59.077Z,1.20
2018-12-12T07:56:27.345Z,1.24
2018-12-12T07:58:55.637Z,1.28
2018-12-12T08:01:23.937Z,1.35
2018-12-12T08:03:52.296Z,1.42
2018-12-12T08:06:20.627Z,1.46
2018-12-12T08:08:48.909Z,1.54
2018-12-12T08:11:17.277Z,1.64
2018-12-12T08:13:45.556Z,1.68
2018-12-12T08:16:13.937Z,1.76
2018-12-12T08:18:42.468Z,1.83
2018-12-12T08:21:10.736Z,1.84
2018-12-12T08:23:39.021Z,1.92
2018-12-12T08:26:07.355Z,1.94
2018-12-12T08:28:35.635Z,2.02
2018-12-12T08:31:03.894Z,1.91
2018-12-12T08:33:32.196Z,2.15
2018-12-12T08:36:00.478Z,2.23
2018-12-12T08:38:28.761Z,2.29
2018-12-12T08:40:57.159Z,2.37
2018-12-12T08:43:25.538Z,2.38
2018-12-12T08:45:53.837Z,2.33
2018-12-12T08:48:22.116Z,2.33
2018-12-12T08:50:50.393Z,2.37
2018-12-12T08:53:18.629Z,2.45
2018-12-12T08:55:46.881Z,2.55
2018-12-12T08:58:15.228Z,2.61
2018-12-12T09:00:43.452Z,2.64
2018-12-12T09:03:17.390Z,2.63
2018-12-12T09:05:42.041Z,2.70
2018-12-12T09:08:10.287Z,2.69
2018-12-12T09:10:38.556Z,2.84
2018-12-12T09:13:06.796Z,2.93
2018-12-12T09:15:35.037Z,2.86
2018-12-12T09:18:03.309Z,2.91
2018-12-12T09:20:31.566Z,2.90
2018-12-12T09:22:59.887Z,2.97
2018-12-12T09:25:28.191Z,2.99
2018-12-12T09:27:56.444Z,2.98
2018-12-12T09:30:24.699Z,3.00
2018-12-12T09:32:52.961Z,3.05
2018-12-12T09:35:21.247Z,3.12
2018-12-12T09:37:49.484Z,3.15
2018-12-12T09:40:17.793Z,3.11
2018-12-12T09:42:46.020Z,3.15
2018-12-12T09:45:14.316Z,3.22
2018-12-12T09:47:42.580Z,3.30
2018-12-12T09:50:10.825Z,3.37
2018-12-12T09:52:39.075Z,3.39
2018-12-12T09:55:07.384Z,3.46
2018-12-12T09:57:35.623Z,3.62
2018-12-12T10:00:05.344Z,3.73
2018-12-12T10:02:33.608Z,3.75
2018-12-12T10:05:01.948Z,3.67
2018-12-12T10:07:30.300Z,3.58
2018-12-12T10:09:58.562Z,3.67
2018-12-12T10:12:26.814Z,3.67
2018-12-12T10:14:55.088Z,3.78
2018-12-12T10:17:23.344Z,3.95
2018-12-12T10:19:51.612Z,3.78
2018-12-12T10:22:19.849Z,3.79
2018-12-12T10:24:48.109Z,3.87
2018-12-12T10:27:16.569Z,3.88
2018-12-12T10:29:44.854Z,3.98
2018-12-12T10:32:13.097Z,4.08
2018-12-12T10:34:41.365Z,3.95
2018-12-12T10:37:09.603Z,3.95
2018-12-12T10:39:37.850Z,4.03
2018-12-12T10:42:06.169Z,3.98
2018-12-12T10:44:34.409Z,4.20
2018-12-12T10:47:02.662Z,4.35
2018-12-12T10:49:30.977Z,4.55
2018-12-12T10:51:59.215Z,4.60
2018-12-12T10:54:27.502Z,4.27
2018-12-12T10:56:55.740Z,4.25
2018-12-12T10:59:23.996Z,4.19
2018-12-12T11:04:42.751Z,4.68
2018-12-12T11:07:11.020Z,4.98
2018-12-12T11:09:39.279Z,5.48
2018-12-12T11:12:07.528Z,5.83
2018-12-12T11:14:35.800Z,6.12
2018-12-12T11:17:04.169Z,6.48
2018-12-12T11:19:32.420Z,6.25
2018-12-12T11:22:00.687Z,5.94
2018-12-12T11:24:28.931Z,5.99
2018-12-12T11:26:57.193Z,5.96
2018-12-12T11:29:25.448Z,5.77
2018-12-12T11:31:53.705Z,5.43
2018-12-12T11:34:21.954Z,5.22
2018-12-12T11:36:50.191Z,5.37
2018-12-12T11:39:18.452Z,5.31
2018-12-12T11:41:46.769Z,5.69
2018-12-12T11:44:15.012Z,5.84
2018-12-12T11:46:43.268Z,5.61
2018-12-12T11:49:11.620Z,5.54
2018-12-12T11:51:39.881Z,5.63
2018-12-12T11:54:08.144Z,5.78
2018-12-12T11:56:36.441Z,5.75
2018-12-12T11:59:04.770Z,5.65
2018-12-12T12:01:33.004Z,5.68
2018-12-12T12:04:01.248Z,5.50
2018-12-12T12:06:29.504Z,5.44
2018-12-12T12:08:57.754Z,5.42
2018-12-12T12:11:26.060Z,5.54
2018-12-12T12:13:54.318Z,5.43
2018-12-12T12:16:22.566Z,5.24
2018-12-12T12:18:50.901Z,5.28
2018-12-12T12:21:19.158Z,5.15
2018-12-12T12:23:47.405Z,5.06
2018-12-12T12:26:16.124Z,5.13
2018-12-12T12:28:44.391Z,5.55
2018-12-12T12:31:12.653Z,6.17
2018-12-12T12:33:41.572Z,6.27
2018-12-12T12:36:09.833Z,6.11
2018-12-12T12:38:38.068Z,5.42
2018-12-12T12:41:06.363Z,4.98
2018-12-12T12:43:34.616Z,5.06
2018-12-12T12:46:02.875Z,5.41
2018-12-12T12:48:31.145Z,5.41
2018-12-12T12:50:59.410Z,5.36
2018-12-12T12:53:28.476Z,5.02
2018-12-12T12:55:56.740Z,4.87
2018-12-12T12:58:25.005Z,4.88
2018-12-12T13:00:53.245Z,5.04
2018-12-12T13:03:21.493Z,5.02
2018-12-12T13:05:49.744Z,4.96
2018-12-12T13:08:18.005Z,5.00
2018-12-12T13:10:46.269Z,4.65
2018-12-12T13:13:14.689Z,4.44
2018-12-12T13:15:43.387Z,3.94
2018-12-12T13:18:11.707Z,4.56
2018-12-12T13:20:39.952Z,4.57
2018-12-12T13:23:08.272Z,4.26
2018-12-12T13:25:36.507Z,4.35
2018-12-12T13:28:05.014Z,4.23
2018-12-12T13:30:33.280Z,4.17
2018-12-12T13:33:01.512Z,4.21
2018-12-12T13:35:29.828Z,4.25
2018-12-12T13:37:58.149Z,4.39
2018-12-12T13:40:26.457Z,4.43
2018-12-12T13:42:54.828Z,4.47
2018-12-12T13:45:23.081Z,4.44
2018-12-12T13:47:51.345Z,4.38
2018-12-12T13:50:19.660Z,4.27
2018-12-12T13:52:47.943Z,4.21
2018-12-12T13:55:16.193Z,4.21
2018-12-12T13:57:44.459Z,3.91
2018-12-12T14:00:12.702Z,3.89
2018-12-12T14:02:40.969Z,3.55
2018-12-12T14:05:09.210Z,3.38
2018-12-12T14:07:37.459Z,3.43
2018-12-12T14:10:05.831Z,3.42
2018-12-12T14:12:34.076Z,3.34
2018-12-12T14:15:02.346Z,3.39
2018-12-12T14:17:30.603Z,2.76
2018-12-12T14:19:58.855Z,3.37
2018-12-12T14:22:27.109Z,3.37
2018-12-12T14:24:55.369Z,3.51
2018-12-12T14:27:23.641Z,3.53
2018-12-12T14:29:51.909Z,3.53
2018-12-12T14:32:20.160Z,3.49
2018-12-12T14:34:48.420Z,3.45
2018-12-12T14:37:16.667Z,3.28
2018-12-12T14:39:44.904Z,3.31
2018-12-12T14:42:13.144Z,3.27
2018-12-12T14:44:41.405Z,3.25
2018-12-12T14:47:09.653Z,3.27
2018-12-12T14:49:37.938Z,3.30
2018-12-12T14:52:06.303Z,3.31
2018-12-12T14:54:34.545Z,3.44
2018-12-12T14:57:02.897Z,3.49
2018-12-12T14:59:31.150Z,3.48
2018-12-12T15:01:59.404Z,3.47
2018-12-12T15:04:27.664Z,3.50
2018-12-12T15:06:55.901Z,3.52
2018-12-12T15:09:24.171Z,3.55
2018-12-12T15:11:52.432Z,3.55
2018-12-12T15:14:20.732Z,3.51
2018-12-12T15:16:48.984Z,3.55
2018-12-12T15:19:17.261Z,3.53
2018-12-12T15:21:45.489Z,3.47
2018-12-12T15:24:13.759Z,3.50
2018-12-12T15:26:42.009Z,3.49
2018-12-12T15:29:10.240Z,3.47
2018-12-12T15:31:38.549Z,3.51
2018-12-12T15:34:06.788Z,3.53
2018-12-12T15:36:35.036Z,3.51
2018-12-12T15:39:03.809Z,3.56
2018-12-12T15:41:32.055Z,3.49
2018-12-12T15:44:00.313Z,3.20
2018-12-12T15:46:28.570Z,3.30
2018-12-12T15:48:56.811Z,3.38
2018-12-12T15:51:25.065Z,3.35
2018-12-12T15:53:53.477Z,3.47
2018-12-12T15:56:21.840Z,3.49
2018-12-12T15:58:50.108Z,3.51
2018-12-12T16:01:18.354Z,3.51
2018-12-12T16:03:46.687Z,3.47
2018-12-12T16:06:14.980Z,3.45
2018-12-12T16:08:43.229Z,3.49
2018-12-12T16:11:11.504Z,3.41
2018-12-12T16:13:39.762Z,3.33
2018-12-12T16:16:08.018Z,3.33
2018-12-12T16:18:36.264Z,3.24
2018-12-12T16:21:04.503Z,3.22
2018-12-12T16:23:32.778Z,3.12
2018-12-12T16:26:01.037Z,3.11
2018-12-12T16:28:29.296Z,3.09
2018-12-12T16:30:57.563Z,2.99
2018-12-12T16:33:25.822Z,2.98
2018-12-12T16:35:54.063Z,2.98
2018-12-12T16:38:22.342Z,2.92
2018-12-12T16:40:50.588Z,3.04
2018-12-12T16:43:18.843Z,3.01
2018-12-12T16:45:47.093Z,3.02
2018-12-12T16:48:15.351Z,3.02
2018-12-12T16:50:43.591Z,2.87
2018-12-12T16:53:11.932Z,3.02
2018-12-12T16:55:40.200Z,3.08
2018-12-12T16:58:08.435Z,3.14
2018-12-12T17:00:36.743Z,3.09
2018-12-12T17:03:05.430Z,3.13
2018-12-12T17:05:33.761Z,3.06
2018-12-12T17:08:02.000Z,3.03
2018-12-12T17:10:30.243Z,3.02
2018-12-12T17:12:58.517Z,3.10
2018-12-12T17:15:26.756Z,3.10
2018-12-12T17:17:55.002Z,3.06
2018-12-12T17:20:23.366Z,2.85
2018-12-12T17:22:51.618Z,2.92
2018-12-12T17:25:19.871Z,2.83
2018-12-12T17:27:48.179Z,2.87
2018-12-12T17:30:16.433Z,2.80
2018-12-12T17:32:44.675Z,2.87
2018-12-12T17:35:12.981Z,2.95
2018-12-12T17:37:41.240Z,3.01
2018-12-12T17:40:09.576Z,3.05
2018-12-12T17:42:37.827Z,3.05
2018-12-12T17:45:06.176Z,2.92
2018-12-12T17:47:34.436Z,2.97
2018-12-12T17:50:02.695Z,2.98
2018-12-12T17:52:30.945Z,3.03
2018-12-12T17:54:59.188Z,3.02
2018-12-12T17:57:27.583Z,3.05
2018-12-12T17:59:55.868Z,3.03
2018-12-12T18:02:24.172Z,3.04
2018-12-12T18:04:52.434Z,2.96
2018-12-12T18:07:20.675Z,2.96
2018-12-12T18:09:48.939Z,3.02
2018-12-12T18:12:17.224Z,3.09
2018-12-12T18:14:45.518Z,3.05
2018-12-12T18:17:13.764Z,3.00
2018-12-12T18:19:42.066Z,2.99
2018-12-12T18:22:10.352Z,2.94
2018-12-12T18:24:38.600Z,2.96
2018-12-12T18:27:06.857Z,2.88
2018-12-12T18:29:35.131Z,2.83
2018-12-12T18:32:03.553Z,2.90
2018-12-12T18:34:31.902Z,2.85
2018-12-12T18:37:00.323Z,2.93
2018-12-12T18:39:28.776Z,2.86
2018-12-12T18:41:57.131Z,2.84
2018-12-12T18:44:25.529Z,2.76
2018-12-12T18:46:53.926Z,2.78
2018-12-12T18:49:22.184Z,2.77
2018-12-12T18:51:50.547Z,2.90
2018-12-12T18:54:18.831Z,2.77
2018-12-12T18:56:47.183Z,2.73
2018-12-12T18:59:15.515Z,2.68
2018-12-12T19:01:43.944Z,2.56
2018-12-12T19:04:12.325Z,2.70
2018-12-12T19:06:40.632Z,2.76
2018-12-12T19:09:09.681Z,2.84
2018-12-12T19:11:44.173Z,2.84
2018-12-12T19:14:08.756Z,2.90
2018-12-12T19:16:38.142Z,2.92
2018-12-12T19:19:07.845Z,2.87
2018-12-12T19:21:37.589Z,2.86
2018-12-12T19:24:07.508Z,2.79
2018-12-12T19:26:36.992Z,2.82
2018-12-12T19:29:05.994Z,2.80
2018-12-12T19:31:35.674Z,2.86
2018-12-12T19:34:04.955Z,2.95
2018-12-12T19:36:34.062Z,2.98
2018-12-12T19:39:03.948Z,3.01
2018-12-12T19:41:33.953Z,3.00
2018-12-12T19:44:03.587Z,2.98
2018-12-12T19:46:33.363Z,2.98
2018-12-12T19:49:03.285Z,2.92
2018-12-12T19:51:33.397Z,2.93
2018-12-12T19:54:02.902Z,2.88
2018-12-12T19:56:32.656Z,2.93
2018-12-12T19:59:02.327Z,3.03
2018-12-12T20:01:31.636Z,3.00
2018-12-12T20:04:01.415Z,2.88
2018-12-12T20:06:30.951Z,2.90
2018-12-12T20:09:00.635Z,2.90
2018-12-12T20:11:30.079Z,2.80
2018-12-12T20:13:59.436Z,2.83
2018-12-12T20:16:28.893Z,2.88
2018-12-12T20:18:58.225Z,2.87
2018-12-12T20:21:29.635Z,2.91
2018-12-12T20:23:59.338Z,2.96
2018-12-12T20:26:29.149Z,2.98
2018-12-12T20:28:59.191Z,2.94
2018-12-12T20:31:29.198Z,2.85
2018-12-12T20:33:59.293Z,2.86
2018-12-12T20:36:29.124Z,2.92
2018-12-12T20:38:59.226Z,2.83
2018-12-12T20:41:29.412Z,2.74
2018-12-12T20:43:59.630Z,2.66
2018-12-12T20:46:29.973Z,2.75
2018-12-12T20:48:59.827Z,2.75
2018-12-12T20:51:29.899Z,2.81
2018-12-12T20:53:59.768Z,2.86
2018-12-12T20:56:29.259Z,2.88
2018-12-12T20:58:59.131Z,2.93
2018-12-12T21:01:29.204Z,2.98
2018-12-12T21:03:59.919Z,2.92
2018-12-12T21:06:30.962Z,2.92
2018-12-12T21:09:01.076Z,2.86
2018-12-12T21:11:30.999Z,2.75
2018-12-12T21:14:00.827Z,2.78
2018-12-12T21:16:31.459Z,2.74
2018-12-12T21:19:00.767Z,2.74
2018-12-12T21:21:30.911Z,2.51
2018-12-12T21:24:00.653Z,2.62
2018-12-12T21:26:29.823Z,2.64
2018-12-12T21:28:59.570Z,2.58
2018-12-12T21:31:28.654Z,2.69
2018-12-12T21:33:57.040Z,2.69
2018-12-12T21:36:25.383Z,2.73
2018-12-12T21:38:53.807Z,2.79
2018-12-12T21:41:22.205Z,2.66
2018-12-12T21:43:50.564Z,2.84
2018-12-12T21:46:18.891Z,2.84
2018-12-12T21:48:47.261Z,2.77
2018-12-12T21:51:15.599Z,2.84
2018-12-12T21:53:43.924Z,2.87
2018-12-12T21:56:12.230Z,2.82
2018-12-12T21:58:40.533Z,2.87
2018-12-12T22:01:08.874Z,2.72
2018-12-12T22:03:37.203Z,2.72
2018-12-12T22:06:07.572Z,2.78
2018-12-12T22:08:35.876Z,2.77
2018-12-12T22:11:04.285Z,2.82
2018-12-12T22:13:32.614Z,2.75
2018-12-12T22:16:01.015Z,2.78
2018-12-12T22:18:29.337Z,2.78
2018-12-12T22:20:57.646Z,2.73
2018-12-12T22:23:25.939Z,2.72
2018-12-12T22:25:54.272Z,2.66
2018-12-12T22:28:22.593Z,2.64
2018-12-12T22:30:50.980Z,2.62
2018-12-12T22:33:19.340Z,2.60
2018-12-12T22:35:47.693Z,2.58
2018-12-12T22:38:16.069Z,2.63
2018-12-12T22:40:44.379Z,2.69
2018-12-12T22:43:12.767Z,2.71
2018-12-12T22:45:41.119Z,2.66
2018-12-12T22:48:09.499Z,2.54
2018-12-12T22:50:37.802Z,2.52
2018-12-12T22:53:06.157Z,2.60
2018-12-12T22:55:34.457Z,2.54
2018-12-12T22:58:02.809Z,2.53
2018-12-12T23:00:35.021Z,2.51
2018-12-12T23:03:03.686Z,2.49
2018-12-12T23:05:31.954Z,2.51
2018-12-12T23:08:00.259Z,2.47
2018-12-12T23:10:28.525Z,2.46
2018-12-12T23:12:56.772Z,2.45
2018-12-12T23:15:25.419Z,2.51
2018-12-12T23:17:53.672Z,2.58
2018-12-12T23:20:21.940Z,2.63
2018-12-12T23:22:50.224Z,2.70
2018-12-12T23:25:18.472Z,2.77
2018-12-12T23:27:46.748Z,2.73
2018-12-12T23:30:15.052Z,2.73
2018-12-12T23:32:43.306Z,2.59
2018-12-12T23:35:11.577Z,2.54
2018-12-12T23:37:39.834Z,2.46
2018-12-12T23:40:08.138Z,2.35
2018-12-12T23:42:36.410Z,2.32
2018-12-12T23:45:05.644Z,2.28
2018-12-12T23:47:33.920Z,2.21
2018-12-12T23:50:02.179Z,2.15
2018-12-12T23:52:30.432Z,2.15
2018-12-12T23:54:58.704Z,2.13
2018-12-12T23:57:27.041Z,2.12
2018-12-12T23:59:55.304Z,2.08
